OAL195 SLPO-SBCG
Flight info
| Callsign | OAL195 |
|---|---|
| Flight time | 1h 35m |
| Altitude | FL370 |
| Route | ALC UW14 VIR UM411 ATERU UZ42 IRIPI |
| Aircraft | B737/M-SDE2E3FGHIRWXY/LB1 |
Departure
| Time | 2026-05-08 21:37 |
|---|---|
| Airport | Capitan Nicolas Rojas Airport (SLPO) |
Arrival
| Time | 2026-05-08 23:12 |
|---|---|
| Airport | Campo Grande Airport (SBCG) |
| Time | Latitude | Longitude | Altitude | Speed | Heading |
|---|---|---|---|---|---|
| 2026-05-08 21:12 | -19.54324 | -65.72031 | 12438 ft | 0 kts | 96° |
| 2026-05-08 21:32 | -19.54318 | -65.72018 | 12444 ft | 5 kts | 51° |
| 2026-05-08 21:33 | -19.54265 | -65.72031 | 12450 ft | 12 kts | 335° |
| 2026-05-08 21:33 | -19.54173 | -65.72091 | 12450 ft | 17 kts | 335° |
| 2026-05-08 21:33 | -19.54069 | -65.71994 | 12444 ft | 26 kts | 56° |
| 2026-05-08 21:33 | -19.53963 | -65.71830 | 12434 ft | 28 kts | 56° |
| 2026-05-08 21:34 | -19.53866 | -65.71678 | 12434 ft | 24 kts | 56° |
| 2026-05-08 21:34 | -19.53774 | -65.71533 | 12424 ft | 23 kts | 56° |
| 2026-05-08 21:34 | -19.53690 | -65.71401 | 12409 ft | 16 kts | 56° |
| 2026-05-08 21:34 | -19.53657 | -65.71312 | 12405 ft | 13 kts | 74° |
| 2026-05-08 21:35 | -19.53631 | -65.71298 | 12400 ft | 5 kts | 275° |
| 2026-05-08 21:35 | -19.53657 | -65.71350 | 12401 ft | 9 kts | 236° |
| 2026-05-08 21:35 | -19.53658 | -65.71352 | 12402 ft | 0 kts | 236° |
| 2026-05-08 21:35 | -19.53691 | -65.71404 | 12409 ft | 29 kts | 236° |
| 2026-05-08 21:36 | -19.53898 | -65.71728 | 12438 ft | 76 kts | 236° |
| 2026-05-08 21:36 | -19.54274 | -65.72315 | 12458 ft | 116 kts | 236° |
| 2026-05-08 21:36 | -19.54787 | -65.73121 | 12510 ft | 148 kts | 237° |
| 2026-05-08 21:36 | -19.55399 | -65.74104 | 12631 ft | 170 kts | 239° |
| 2026-05-08 21:37 | -19.56026 | -65.75211 | 12920 ft | 184 kts | 240° |
| 2026-05-08 21:37 | -19.56701 | -65.76482 | 12991 ft | 201 kts | 245° |
| 2026-05-08 21:37 | -19.57289 | -65.77799 | 13665 ft | 203 kts | 239° |
| 2026-05-08 21:37 | -19.58166 | -65.79053 | 13928 ft | 217 kts | 233° |
| 2026-05-08 21:38 | -19.58939 | -65.80426 | 14301 ft | 226 kts | 255° |
| 2026-05-08 21:38 | -19.58960 | -65.82160 | 14341 ft | 250 kts | 286° |
| 2026-05-08 21:38 | -19.58064 | -65.83802 | 14447 ft | 274 kts | 312° |
| 2026-05-08 21:38 | -19.56401 | -65.84956 | 14502 ft | 306 kts | 338° |
| 2026-05-08 21:39 | -19.54217 | -65.85310 | 14582 ft | 335 kts | 1° |
| 2026-05-08 21:39 | -19.51884 | -65.84708 | 14709 ft | 361 kts | 23° |
| 2026-05-08 21:39 | -19.49767 | -65.83175 | 14878 ft | 382 kts | 44° |
| 2026-05-08 21:39 | -19.48202 | -65.80860 | 15145 ft | 392 kts | 65° |
| 2026-05-08 21:40 | -19.47265 | -65.78167 | 15878 ft | 392 kts | 72° |
| 2026-05-08 21:40 | -19.46432 | -65.75390 | 16404 ft | 399 kts | 71° |
| 2026-05-08 21:40 | -19.45546 | -65.72624 | 17146 ft | 398 kts | 70° |
| 2026-05-08 21:41 | -19.43730 | -65.67033 | 18307 ft | 406 kts | 71° |
| 2026-05-08 21:41 | -19.42814 | -65.64196 | 18840 ft | 410 kts | 71° |
| 2026-05-08 21:41 | -19.41892 | -65.61327 | 19325 ft | 415 kts | 71° |
| 2026-05-08 21:41 | -19.40959 | -65.58417 | 19803 ft | 420 kts | 71° |
| 2026-05-08 21:42 | -19.40019 | -65.55479 | 20323 ft | 424 kts | 71° |
| 2026-05-08 21:42 | -19.39073 | -65.52523 | 20896 ft | 425 kts | 71° |
| 2026-05-08 21:42 | -19.38125 | -65.49558 | 21419 ft | 428 kts | 71° |
| 2026-05-08 21:42 | -19.37167 | -65.46565 | 21902 ft | 432 kts | 71° |
| 2026-05-08 21:43 | -19.36202 | -65.43552 | 22465 ft | 435 kts | 71° |
| 2026-05-08 21:43 | -19.35229 | -65.40516 | 23036 ft | 437 kts | 71° |
| 2026-05-08 21:43 | -19.34248 | -65.37460 | 23566 ft | 441 kts | 71° |
| 2026-05-08 21:43 | -19.33261 | -65.34385 | 24007 ft | 444 kts | 71° |
| 2026-05-08 21:44 | -19.32267 | -65.31290 | 24429 ft | 447 kts | 71° |
| 2026-05-08 21:44 | -19.31265 | -65.28174 | 24866 ft | 449 kts | 71° |
| 2026-05-08 21:44 | -19.30262 | -65.25053 | 25360 ft | 450 kts | 71° |
| 2026-05-08 21:44 | -19.29252 | -65.21912 | 25752 ft | 454 kts | 70° |
| 2026-05-08 21:45 | -19.28229 | -65.18737 | 26074 ft | 459 kts | 70° |
| 2026-05-08 21:45 | -19.27055 | -65.15597 | 26385 ft | 462 kts | 62° |
| 2026-05-08 21:45 | -19.25452 | -65.12662 | 26780 ft | 462 kts | 53° |
| 2026-05-08 21:45 | -19.23444 | -65.10022 | 27157 ft | 462 kts | 46° |
| 2026-05-08 21:46 | -19.21283 | -65.07500 | 27486 ft | 466 kts | 45° |
| 2026-05-08 21:46 | -19.19104 | -65.04960 | 27843 ft | 469 kts | 45° |
| 2026-05-08 21:46 | -19.16941 | -65.02378 | 28169 ft | 471 kts | 46° |
| 2026-05-08 21:46 | -19.14784 | -64.99760 | 28494 ft | 474 kts | 46° |
| 2026-05-08 21:47 | -19.12624 | -64.97124 | 28791 ft | 477 kts | 46° |
| 2026-05-08 21:47 | -19.10448 | -64.94463 | 29057 ft | 481 kts | 46° |
| 2026-05-08 21:47 | -19.08252 | -64.91780 | 29276 ft | 486 kts | 46° |
| 2026-05-08 21:47 | -19.06040 | -64.89079 | 29573 ft | 488 kts | 46° |
| 2026-05-08 21:48 | -19.03819 | -64.86369 | 29898 ft | 490 kts | 46° |
| 2026-05-08 21:48 | -19.01585 | -64.83648 | 30152 ft | 492 kts | 46° |
| 2026-05-08 21:48 | -18.99343 | -64.80918 | 30385 ft | 494 kts | 46° |
| 2026-05-08 21:48 | -18.97092 | -64.78180 | 30666 ft | 495 kts | 45° |
| 2026-05-08 21:49 | -18.94832 | -64.75432 | 30912 ft | 498 kts | 45° |
| 2026-05-08 21:49 | -18.92560 | -64.72670 | 31174 ft | 500 kts | 45° |
| 2026-05-08 21:49 | -18.90283 | -64.69904 | 31574 ft | 498 kts | 45° |
| 2026-05-08 21:49 | -18.88021 | -64.67154 | 32072 ft | 495 kts | 45° |
| 2026-05-08 21:50 | -18.85776 | -64.64426 | 32565 ft | 492 kts | 45° |
| 2026-05-08 21:50 | -18.83538 | -64.61710 | 32970 ft | 491 kts | 44° |
| 2026-05-08 21:50 | -18.81304 | -64.59001 | 33342 ft | 490 kts | 44° |
| 2026-05-08 21:50 | -18.79070 | -64.56293 | 33739 ft | 489 kts | 44° |
| 2026-05-08 21:51 | -18.76850 | -64.53594 | 34076 ft | 488 kts | 44° |
| 2026-05-08 21:51 | -18.74637 | -64.50885 | 34306 ft | 489 kts | 45° |
| 2026-05-08 21:51 | -18.72429 | -64.48174 | 34651 ft | 487 kts | 44° |
| 2026-05-08 21:51 | -18.70241 | -64.45482 | 35055 ft | 483 kts | 44° |
| 2026-05-08 21:52 | -18.68063 | -64.42804 | 35416 ft | 481 kts | 44° |
| 2026-05-08 21:52 | -18.65891 | -64.40137 | 35719 ft | 480 kts | 44° |
| 2026-05-08 21:52 | -18.63718 | -64.37473 | 35976 ft | 480 kts | 44° |
| 2026-05-08 21:52 | -18.61544 | -64.34810 | 36187 ft | 481 kts | 43° |
| 2026-05-08 21:53 | -18.59368 | -64.32147 | 36386 ft | 480 kts | 43° |
| 2026-05-08 21:53 | -18.57193 | -64.29488 | 36506 ft | 481 kts | 43° |
| 2026-05-08 21:53 | -18.55009 | -64.26818 | 36680 ft | 482 kts | 43° |
| 2026-05-08 21:53 | -18.52826 | -64.24149 | 36933 ft | 479 kts | 43° |
| 2026-05-08 21:54 | -18.48513 | -64.18874 | 36942 ft | 476 kts | 43° |
| 2026-05-08 21:54 | -18.44170 | -64.13578 | 36943 ft | 482 kts | 43° |
| 2026-05-08 21:55 | -18.39791 | -64.08240 | 36945 ft | 483 kts | 43° |
| 2026-05-08 21:56 | -18.33208 | -64.00217 | 36944 ft | 485 kts | 43° |
| 2026-05-08 21:56 | -18.28803 | -63.94854 | 36974 ft | 485 kts | 43° |
| 2026-05-08 21:57 | -18.24393 | -63.89490 | 36972 ft | 486 kts | 43° |
| 2026-05-08 21:57 | -18.19980 | -63.84128 | 36961 ft | 486 kts | 43° |
| 2026-05-08 21:58 | -18.15573 | -63.78777 | 36964 ft | 485 kts | 43° |
| 2026-05-08 21:58 | -18.11170 | -63.73434 | 36968 ft | 484 kts | 42° |
| 2026-05-08 21:59 | -18.06780 | -63.68112 | 36970 ft | 482 kts | 42° |
| 2026-05-08 21:59 | -18.02407 | -63.62817 | 36972 ft | 480 kts | 42° |
| 2026-05-08 22:00 | -17.98049 | -63.57542 | 36972 ft | 478 kts | 42° |
| 2026-05-08 22:00 | -17.93701 | -63.52286 | 36981 ft | 477 kts | 42° |
| 2026-05-08 22:01 | -17.89362 | -63.47044 | 36969 ft | 477 kts | 42° |
| 2026-05-08 22:01 | -17.85017 | -63.41800 | 36949 ft | 477 kts | 42° |
| 2026-05-08 22:02 | -17.80681 | -63.36569 | 36945 ft | 476 kts | 42° |
| 2026-05-08 22:02 | -17.76350 | -63.31349 | 36941 ft | 475 kts | 42° |
| 2026-05-08 22:03 | -17.72026 | -63.26141 | 36947 ft | 474 kts | 42° |
| 2026-05-08 22:03 | -17.67704 | -63.20939 | 36938 ft | 474 kts | 42° |
| 2026-05-08 22:03 | -17.65627 | -63.18255 | 36914 ft | 481 kts | 53° |
| 2026-05-08 22:04 | -17.64278 | -63.15017 | 36956 ft | 493 kts | 72° |
| 2026-05-08 22:04 | -17.63815 | -63.11444 | 36923 ft | 501 kts | 88° |
| 2026-05-08 22:04 | -17.64305 | -63.07831 | 36950 ft | 504 kts | 103° |
| 2026-05-08 22:05 | -17.66267 | -63.00782 | 36941 ft | 505 kts | 106° |
| 2026-05-08 22:05 | -17.68340 | -62.93766 | 36942 ft | 505 kts | 105° |
| 2026-05-08 22:06 | -17.70340 | -62.86724 | 36946 ft | 505 kts | 104° |
| 2026-05-08 22:06 | -17.72282 | -62.79669 | 36944 ft | 504 kts | 105° |
| 2026-05-08 22:07 | -17.74206 | -62.72622 | 36953 ft | 503 kts | 104° |
| 2026-05-08 22:07 | -17.76130 | -62.65573 | 36952 ft | 504 kts | 104° |
| 2026-05-08 22:08 | -17.78055 | -62.58523 | 36949 ft | 504 kts | 104° |
| 2026-05-08 22:08 | -17.79981 | -62.51463 | 36939 ft | 505 kts | 104° |
| 2026-05-08 22:09 | -17.81906 | -62.44398 | 36953 ft | 504 kts | 104° |
| 2026-05-08 22:09 | -17.83826 | -62.37336 | 36944 ft | 504 kts | 104° |
| 2026-05-08 22:10 | -17.85744 | -62.30273 | 36945 ft | 504 kts | 104° |
| 2026-05-08 22:10 | -17.87658 | -62.23211 | 36942 ft | 504 kts | 104° |
| 2026-05-08 22:11 | -17.89568 | -62.16155 | 36945 ft | 503 kts | 104° |
| 2026-05-08 22:11 | -17.91474 | -62.09103 | 36940 ft | 503 kts | 104° |
| 2026-05-08 22:12 | -17.93377 | -62.02051 | 36937 ft | 503 kts | 104° |
| 2026-05-08 22:12 | -17.95277 | -61.94999 | 36935 ft | 503 kts | 104° |
| 2026-05-08 22:13 | -17.97174 | -61.87946 | 36949 ft | 503 kts | 104° |
| 2026-05-08 22:13 | -17.99070 | -61.80889 | 36942 ft | 503 kts | 104° |
| 2026-05-08 22:14 | -18.00984 | -61.73835 | 36943 ft | 503 kts | 105° |
| 2026-05-08 22:14 | -18.02916 | -61.66780 | 36937 ft | 503 kts | 105° |
| 2026-05-08 22:15 | -18.04840 | -61.59726 | 36941 ft | 503 kts | 105° |
| 2026-05-08 22:15 | -18.06759 | -61.52667 | 36937 ft | 503 kts | 105° |
| 2026-05-08 22:16 | -18.08675 | -61.45609 | 36938 ft | 503 kts | 105° |
| 2026-05-08 22:16 | -18.10609 | -61.38556 | 36939 ft | 503 kts | 105° |
| 2026-05-08 22:17 | -18.12588 | -61.31512 | 36927 ft | 503 kts | 105° |
| 2026-05-08 22:17 | -18.14569 | -61.24469 | 36937 ft | 504 kts | 105° |
| 2026-05-08 22:18 | -18.16547 | -61.17402 | 36937 ft | 505 kts | 105° |
| 2026-05-08 22:18 | -18.18521 | -61.10319 | 36930 ft | 506 kts | 105° |
| 2026-05-08 22:19 | -18.20494 | -61.03228 | 36928 ft | 506 kts | 105° |
| 2026-05-08 22:19 | -18.22465 | -60.96133 | 36932 ft | 506 kts | 105° |
| 2026-05-08 22:20 | -18.24433 | -60.89038 | 36938 ft | 507 kts | 105° |
| 2026-05-08 22:20 | -18.26402 | -60.81932 | 36933 ft | 507 kts | 105° |
| 2026-05-08 22:21 | -18.28368 | -60.74822 | 36918 ft | 507 kts | 105° |
| 2026-05-08 22:21 | -18.30330 | -60.67719 | 36931 ft | 506 kts | 105° |
| 2026-05-08 22:22 | -18.32282 | -60.60639 | 36957 ft | 505 kts | 105° |
| 2026-05-08 22:22 | -18.34231 | -60.53557 | 36942 ft | 505 kts | 105° |
| 2026-05-08 22:23 | -18.36178 | -60.46471 | 36941 ft | 505 kts | 105° |
| 2026-05-08 22:23 | -18.38122 | -60.39387 | 36944 ft | 505 kts | 105° |
| 2026-05-08 22:24 | -18.40063 | -60.32305 | 36938 ft | 504 kts | 105° |
| 2026-05-08 22:24 | -18.41998 | -60.25229 | 36945 ft | 504 kts | 105° |
| 2026-05-08 22:25 | -18.43933 | -60.18142 | 36946 ft | 505 kts | 105° |
| 2026-05-08 22:25 | -18.45868 | -60.11049 | 36949 ft | 504 kts | 105° |
| 2026-05-08 22:26 | -18.47794 | -60.03974 | 36942 ft | 503 kts | 105° |
| 2026-05-08 22:26 | -18.49714 | -59.96909 | 36978 ft | 502 kts | 105° |
| 2026-05-08 22:27 | -18.51628 | -59.89857 | 36998 ft | 502 kts | 105° |
| 2026-05-08 22:27 | -18.53539 | -59.82804 | 37015 ft | 502 kts | 105° |
| 2026-05-08 22:28 | -18.55451 | -59.75735 | 36999 ft | 503 kts | 105° |
| 2026-05-08 22:28 | -18.57366 | -59.68644 | 36981 ft | 505 kts | 105° |
| 2026-05-08 22:29 | -18.59281 | -59.61544 | 36970 ft | 505 kts | 104° |
| 2026-05-08 22:29 | -18.61191 | -59.54450 | 36951 ft | 504 kts | 105° |
| 2026-05-08 22:30 | -18.63097 | -59.47356 | 36947 ft | 504 kts | 105° |
| 2026-05-08 22:30 | -18.65000 | -59.40266 | 36955 ft | 503 kts | 105° |
| 2026-05-08 22:31 | -18.66899 | -59.33176 | 36948 ft | 503 kts | 104° |
| 2026-05-08 22:31 | -18.68794 | -59.26095 | 36964 ft | 503 kts | 104° |
| 2026-05-08 22:32 | -18.70686 | -59.19009 | 36955 ft | 503 kts | 104° |
| 2026-05-08 22:32 | -18.72574 | -59.11925 | 36953 ft | 503 kts | 104° |
| 2026-05-08 22:33 | -18.74462 | -59.04832 | 36949 ft | 503 kts | 104° |
| 2026-05-08 22:33 | -18.76346 | -58.97741 | 36953 ft | 502 kts | 104° |
| 2026-05-08 22:34 | -18.78225 | -58.90662 | 36949 ft | 502 kts | 104° |
| 2026-05-08 22:34 | -18.80098 | -58.83587 | 36953 ft | 501 kts | 104° |
| 2026-05-08 22:35 | -18.81966 | -58.76521 | 36954 ft | 501 kts | 104° |
| 2026-05-08 22:35 | -18.83830 | -58.69459 | 36950 ft | 500 kts | 104° |
| 2026-05-08 22:36 | -18.85692 | -58.62403 | 36955 ft | 500 kts | 104° |
| 2026-05-08 22:36 | -18.87611 | -58.55366 | 36952 ft | 501 kts | 105° |
| 2026-05-08 22:37 | -18.89556 | -58.48313 | 36951 ft | 501 kts | 105° |
| 2026-05-08 22:37 | -18.91490 | -58.41252 | 36956 ft | 502 kts | 105° |
| 2026-05-08 22:38 | -18.93418 | -58.34178 | 36947 ft | 503 kts | 105° |
| 2026-05-08 22:38 | -18.95348 | -58.27095 | 36948 ft | 503 kts | 105° |
| 2026-05-08 22:39 | -18.97284 | -58.20009 | 36943 ft | 503 kts | 105° |
| 2026-05-08 22:39 | -18.99220 | -58.12927 | 36947 ft | 502 kts | 105° |
| 2026-05-08 22:40 | -19.01147 | -58.05855 | 36940 ft | 502 kts | 105° |
| 2026-05-08 22:40 | -19.03069 | -57.98788 | 36935 ft | 501 kts | 105° |
| 2026-05-08 22:41 | -19.04984 | -57.91733 | 36918 ft | 500 kts | 105° |
| 2026-05-08 22:41 | -19.06893 | -57.84692 | 36922 ft | 499 kts | 105° |
| 2026-05-08 22:42 | -19.08875 | -57.77692 | 36910 ft | 498 kts | 108° |
| 2026-05-08 22:42 | -19.11175 | -57.70815 | 36914 ft | 497 kts | 109° |
| 2026-05-08 22:43 | -19.13531 | -57.63965 | 36911 ft | 496 kts | 109° |
| 2026-05-08 22:43 | -19.15846 | -57.57108 | 36921 ft | 496 kts | 109° |
| 2026-05-08 22:44 | -19.18129 | -57.50249 | 36929 ft | 495 kts | 109° |
| 2026-05-08 22:44 | -19.20402 | -57.43393 | 36924 ft | 495 kts | 109° |
| 2026-05-08 22:45 | -19.22677 | -57.36529 | 36930 ft | 496 kts | 109° |
| 2026-05-08 22:45 | -19.24954 | -57.29658 | 36932 ft | 496 kts | 109° |
| 2026-05-08 22:46 | -19.27229 | -57.22781 | 36926 ft | 496 kts | 108° |
| 2026-05-08 22:46 | -19.29502 | -57.15896 | 36925 ft | 497 kts | 108° |
| 2026-05-08 22:47 | -19.31774 | -57.09007 | 36926 ft | 497 kts | 109° |
| 2026-05-08 22:47 | -19.34047 | -57.02109 | 36928 ft | 498 kts | 109° |
| 2026-05-08 22:48 | -19.36626 | -56.95328 | 36930 ft | 498 kts | 117° |
| 2026-05-08 22:48 | -19.39845 | -56.88843 | 36924 ft | 499 kts | 118° |
| 2026-05-08 22:49 | -19.43130 | -56.82378 | 36928 ft | 499 kts | 118° |
| 2026-05-08 22:49 | -19.47963 | -56.72624 | 36922 ft | 500 kts | 118° |
| 2026-05-08 22:50 | -19.51155 | -56.66095 | 36921 ft | 500 kts | 117° |
| 2026-05-08 22:50 | -19.54340 | -56.59569 | 36920 ft | 499 kts | 118° |
| 2026-05-08 22:51 | -19.57521 | -56.53049 | 36921 ft | 499 kts | 118° |
| 2026-05-08 22:51 | -19.60702 | -56.46527 | 36902 ft | 499 kts | 118° |
| 2026-05-08 22:52 | -19.62307 | -56.43235 | 36320 ft | 506 kts | 118° |
| 2026-05-08 22:52 | -19.63919 | -56.39928 | 35724 ft | 505 kts | 118° |
| 2026-05-08 22:52 | -19.65528 | -56.36622 | 35022 ft | 506 kts | 118° |
| 2026-05-08 22:52 | -19.67140 | -56.33307 | 34296 ft | 508 kts | 118° |
| 2026-05-08 22:53 | -19.68759 | -56.29977 | 33463 ft | 511 kts | 118° |
| 2026-05-08 22:53 | -19.70382 | -56.26637 | 32864 ft | 508 kts | 118° |
| 2026-05-08 22:53 | -19.71990 | -56.23324 | 32310 ft | 504 kts | 118° |
| 2026-05-08 22:53 | -19.73584 | -56.20039 | 31765 ft | 500 kts | 118° |
| 2026-05-08 22:54 | -19.75164 | -56.16780 | 31232 ft | 496 kts | 119° |
| 2026-05-08 22:54 | -19.76732 | -56.13545 | 30707 ft | 492 kts | 119° |
| 2026-05-08 22:54 | -19.78289 | -56.10331 | 30177 ft | 489 kts | 119° |
| 2026-05-08 22:54 | -19.79838 | -56.07133 | 29578 ft | 486 kts | 119° |
| 2026-05-08 22:55 | -19.81373 | -56.03961 | 28991 ft | 481 kts | 119° |
| 2026-05-08 22:55 | -19.82891 | -56.00825 | 28420 ft | 477 kts | 119° |
| 2026-05-08 22:55 | -19.84396 | -55.97712 | 27872 ft | 472 kts | 119° |
| 2026-05-08 22:55 | -19.85885 | -55.94630 | 27330 ft | 468 kts | 118° |
| 2026-05-08 22:56 | -19.87357 | -55.91581 | 26801 ft | 463 kts | 118° |
| 2026-05-08 22:56 | -19.88819 | -55.88552 | 26259 ft | 459 kts | 118° |
| 2026-05-08 22:56 | -19.90267 | -55.85551 | 25743 ft | 456 kts | 118° |
| 2026-05-08 22:56 | -19.91701 | -55.82577 | 25215 ft | 452 kts | 118° |
| 2026-05-08 22:57 | -19.93130 | -55.79613 | 24666 ft | 450 kts | 118° |
| 2026-05-08 22:57 | -19.94547 | -55.76672 | 24126 ft | 447 kts | 117° |
| 2026-05-08 22:57 | -19.95957 | -55.73742 | 23596 ft | 445 kts | 117° |
| 2026-05-08 22:57 | -19.97362 | -55.70822 | 22987 ft | 443 kts | 117° |
| 2026-05-08 22:58 | -19.98755 | -55.67924 | 22439 ft | 439 kts | 117° |
| 2026-05-08 22:58 | -20.00136 | -55.65051 | 21894 ft | 435 kts | 117° |
| 2026-05-08 22:58 | -20.01573 | -55.62248 | 21358 ft | 431 kts | 123° |
| 2026-05-08 22:58 | -20.03349 | -55.59741 | 20831 ft | 422 kts | 133° |
| 2026-05-08 22:59 | -20.05293 | -55.57432 | 20337 ft | 418 kts | 134° |
| 2026-05-08 22:59 | -20.07243 | -55.55161 | 19837 ft | 415 kts | 134° |
| 2026-05-08 22:59 | -20.09179 | -55.52900 | 19300 ft | 413 kts | 134° |
| 2026-05-08 22:59 | -20.11099 | -55.50639 | 18778 ft | 412 kts | 134° |
| 2026-05-08 23:00 | -20.13002 | -55.48380 | 18268 ft | 410 kts | 134° |
| 2026-05-08 23:00 | -20.14889 | -55.46126 | 17694 ft | 408 kts | 134° |
| 2026-05-08 23:00 | -20.16740 | -55.43910 | 17151 ft | 396 kts | 133° |
| 2026-05-08 23:00 | -20.18555 | -55.41734 | 16663 ft | 393 kts | 133° |
| 2026-05-08 23:01 | -20.20360 | -55.39573 | 16172 ft | 391 kts | 133° |
| 2026-05-08 23:01 | -20.22158 | -55.37418 | 15677 ft | 388 kts | 133° |
| 2026-05-08 23:01 | -20.23941 | -55.35276 | 15184 ft | 386 kts | 131° |
| 2026-05-08 23:01 | -20.25505 | -55.32968 | 14706 ft | 385 kts | 119° |
| 2026-05-08 23:02 | -20.26713 | -55.30451 | 14286 ft | 380 kts | 116° |
| 2026-05-08 23:02 | -20.27848 | -55.27925 | 13861 ft | 377 kts | 115° |
| 2026-05-08 23:02 | -20.28966 | -55.25414 | 13373 ft | 375 kts | 114° |
| 2026-05-08 23:02 | -20.30080 | -55.22929 | 12936 ft | 370 kts | 115° |
| 2026-05-08 23:03 | -20.31190 | -55.20477 | 12509 ft | 367 kts | 115° |
| 2026-05-08 23:03 | -20.32296 | -55.18050 | 12095 ft | 362 kts | 115° |
| 2026-05-08 23:03 | -20.33392 | -55.15654 | 11688 ft | 359 kts | 115° |
| 2026-05-08 23:03 | -20.34478 | -55.13282 | 11290 ft | 355 kts | 115° |
| 2026-05-08 23:04 | -20.35549 | -55.10946 | 10885 ft | 347 kts | 115° |
| 2026-05-08 23:04 | -20.36588 | -55.08679 | 10495 ft | 336 kts | 115° |
| 2026-05-08 23:04 | -20.37595 | -55.06480 | 10128 ft | 326 kts | 115° |
| 2026-05-08 23:04 | -20.38574 | -55.04342 | 9778 ft | 319 kts | 115° |
| 2026-05-08 23:05 | -20.39606 | -55.02265 | 9387 ft | 318 kts | 126° |
| 2026-05-08 23:05 | -20.41103 | -55.00550 | 9032 ft | 315 kts | 137° |
| 2026-05-08 23:05 | -20.42700 | -54.98959 | 8670 ft | 315 kts | 138° |
| 2026-05-08 23:05 | -20.44298 | -54.97377 | 8313 ft | 313 kts | 137° |
| 2026-05-08 23:06 | -20.45871 | -54.95805 | 7950 ft | 307 kts | 137° |
| 2026-05-08 23:06 | -20.47399 | -54.94262 | 7606 ft | 300 kts | 136° |
| 2026-05-08 23:06 | -20.48888 | -54.92748 | 7273 ft | 293 kts | 136° |
| 2026-05-08 23:06 | -20.50340 | -54.91265 | 6968 ft | 285 kts | 135° |
| 2026-05-08 23:07 | -20.51743 | -54.89832 | 6665 ft | 275 kts | 135° |
| 2026-05-08 23:07 | -20.53102 | -54.88442 | 6325 ft | 267 kts | 135° |
| 2026-05-08 23:07 | -20.54384 | -54.87060 | 6023 ft | 258 kts | 130° |
| 2026-05-08 23:07 | -20.55562 | -54.85680 | 5742 ft | 247 kts | 130° |
| 2026-05-08 23:08 | -20.56692 | -54.84348 | 5465 ft | 238 kts | 130° |
| 2026-05-08 23:08 | -20.57790 | -54.83061 | 5176 ft | 232 kts | 130° |
| 2026-05-08 23:08 | -20.58840 | -54.81769 | 4940 ft | 231 kts | 119° |
| 2026-05-08 23:08 | -20.59263 | -54.80197 | 4697 ft | 216 kts | 76° |
| 2026-05-08 23:09 | -20.58736 | -54.78823 | 4466 ft | 194 kts | 41° |
| 2026-05-08 23:09 | -20.57804 | -54.77819 | 4276 ft | 190 kts | 33° |
| 2026-05-08 23:09 | -20.56816 | -54.76890 | 4110 ft | 189 kts | 32° |
| 2026-05-08 23:09 | -20.55829 | -54.75953 | 3868 ft | 190 kts | 33° |
| 2026-05-08 23:10 | -20.54881 | -54.75034 | 3646 ft | 180 kts | 34° |
| 2026-05-08 23:10 | -20.53957 | -54.74139 | 3410 ft | 181 kts | 34° |
| 2026-05-08 23:10 | -20.53020 | -54.73233 | 3197 ft | 184 kts | 34° |
| 2026-05-08 23:10 | -20.52080 | -54.72320 | 2953 ft | 179 kts | 35° |
| 2026-05-08 23:11 | -20.51202 | -54.71466 | 2757 ft | 164 kts | 36° |
| 2026-05-08 23:11 | -20.50391 | -54.70681 | 2539 ft | 148 kts | 38° |
| 2026-05-08 23:11 | -20.49646 | -54.69960 | 2329 ft | 144 kts | 39° |
| 2026-05-08 23:11 | -20.48913 | -54.69248 | 2134 ft | 144 kts | 40° |
| 2026-05-08 23:12 | -20.48166 | -54.68525 | 1944 ft | 147 kts | 40° |
| 2026-05-08 23:12 | -20.47425 | -54.67815 | 1839 ft | 134 kts | 42° |
| 2026-05-08 23:12 | -20.46842 | -54.67244 | 1839 ft | 92 kts | 42° |
| 2026-05-08 23:12 | -20.46490 | -54.66906 | 1837 ft | 39 kts | 42° |
| 2026-05-08 23:13 | -20.46372 | -54.66792 | 1837 ft | 21 kts | 42° |
| 2026-05-08 23:13 | -20.46266 | -54.66691 | 1836 ft | 20 kts | 42° |
| 2026-05-08 23:13 | -20.46163 | -54.66605 | 1837 ft | 17 kts | 13° |
| 2026-05-08 23:13 | -20.46057 | -54.66640 | 1838 ft | 15 kts | 337° |
| 2026-05-08 23:14 | -20.45965 | -54.66679 | 1838 ft | 14 kts | 340° |
| 2026-05-08 23:14 | -20.45877 | -54.66713 | 1838 ft | 13 kts | 340° |
| 2026-05-08 23:14 | -20.45856 | -54.66722 | 1838 ft | 0 kts | 336° |
| 2026-05-08 23:14 | -20.45855 | -54.66722 | 1838 ft | 1 kts | 336° |
| 2026-05-08 23:15 | -20.45819 | -54.66729 | 1838 ft | 10 kts | 354° |
| 2026-05-08 23:15 | -20.45779 | -54.66734 | 1838 ft | 0 kts | 353° |